createdAt,value
2018-12-25T00:00:09.498Z,19.33
2018-12-25T00:02:45.831Z,19.50
2018-12-25T00:05:19.524Z,19.37
2018-12-25T00:07:54.730Z,20.30
2018-12-25T00:10:28.529Z,20.63
2018-12-25T00:13:02.971Z,20.27
2018-12-25T00:15:40.974Z,20.77
2018-12-25T00:18:14.519Z,21.43
2018-12-25T00:20:47.941Z,20.57
2018-12-25T00:23:21.594Z,19.57
2018-12-25T00:25:54.640Z,17.37
2018-12-25T00:28:28.203Z,18.23
2018-12-25T00:31:01.897Z,17.93
2018-12-25T00:33:35.546Z,17.33
2018-12-25T00:36:09.083Z,16.33
2018-12-25T00:38:42.792Z,16.80
2018-12-25T00:41:16.555Z,17.67
2018-12-25T00:43:50.136Z,16.27
2018-12-25T00:46:23.913Z,15.33
2018-12-25T00:48:57.245Z,17.30
2018-12-25T00:51:31.019Z,16.73
2018-12-25T00:54:04.690Z,17.00
2018-12-25T00:56:38.745Z,15.90
2018-12-25T00:59:12.071Z,15.27
2018-12-25T01:01:45.732Z,15.87
2018-12-25T01:04:19.389Z,15.03
2018-12-25T01:06:52.823Z,15.90
2018-12-25T01:09:26.520Z,15.90
2018-12-25T01:12:00.309Z,14.77
2018-12-25T01:14:33.834Z,14.97
2018-12-25T01:17:07.509Z,15.57
2018-12-25T01:19:40.857Z,14.17
2018-12-25T01:22:14.221Z,14.37
2018-12-25T01:24:47.761Z,14.37
2018-12-25T01:27:21.605Z,14.80
2018-12-25T01:29:56.388Z,15.67
2018-12-25T01:32:30.088Z,14.57
2018-12-25T01:35:04.569Z,15.20
2018-12-25T01:37:38.230Z,15.37
2018-12-25T01:40:11.347Z,14.57
2018-12-25T01:42:44.899Z,15.47
2018-12-25T01:45:18.508Z,14.43
2018-12-25T01:47:52.203Z,14.93
2018-12-25T01:50:25.985Z,14.03
2018-12-25T01:52:59.901Z,14.53
2018-12-25T01:55:34.458Z,14.27
2018-12-25T01:58:08.142Z,15.80
2018-12-25T02:00:42.096Z,14.57
2018-12-25T02:03:15.470Z,15.53
2018-12-25T02:05:48.854Z,14.80
2018-12-25T02:08:22.500Z,14.47
2018-12-25T02:10:55.853Z,14.50
2018-12-25T02:13:29.519Z,14.03
2018-12-25T02:16:03.188Z,15.13
2018-12-25T02:18:35.865Z,14.93
2018-12-25T02:21:09.491Z,14.17
2018-12-25T02:23:42.887Z,14.87
2018-12-25T02:26:16.404Z,14.23
2018-12-25T02:28:50.058Z,14.23
2018-12-25T02:31:23.604Z,13.13
2018-12-25T02:33:57.041Z,13.90
2018-12-25T02:36:30.565Z,13.47
2018-12-25T02:39:05.211Z,12.63
2018-12-25T02:41:40.506Z,14.10
2018-12-25T02:44:14.145Z,14.10
2018-12-25T02:46:48.347Z,13.40
2018-12-25T02:49:22.034Z,13.83
2018-12-25T02:51:55.753Z,13.97
2018-12-25T02:54:29.408Z,14.70
2018-12-25T02:57:03.137Z,14.10
2018-12-25T02:59:37.377Z,13.47
2018-12-25T03:02:10.891Z,13.23
2018-12-25T03:04:44.748Z,14.70
2018-12-25T03:07:17.963Z,13.80
2018-12-25T03:09:51.583Z,13.87
2018-12-25T03:12:25.212Z,13.90
2018-12-25T03:14:58.775Z,13.27
2018-12-25T03:17:34.032Z,13.47
2018-12-25T03:20:07.137Z,14.53
2018-12-25T03:22:41.588Z,14.03
2018-12-25T03:25:15.357Z,14.60
2018-12-25T03:27:49.031Z,14.43
2018-12-25T03:30:22.689Z,14.13
2018-12-25T03:32:56.249Z,13.90
2018-12-25T03:35:30.014Z,14.03
2018-12-25T03:38:05.000Z,12.73
2018-12-25T03:40:38.709Z,13.83
2018-12-25T03:43:12.063Z,14.83
2018-12-25T03:45:46.163Z,14.93
2018-12-25T03:48:19.719Z,14.17
2018-12-25T03:50:54.494Z,15.23
2018-12-25T03:53:28.087Z,13.90
2018-12-25T03:56:02.644Z,14.20
2018-12-25T03:58:36.226Z,15.43
2018-12-25T04:01:09.916Z,13.90
2018-12-25T04:03:43.180Z,14.27
2018-12-25T04:06:16.788Z,14.73
2018-12-25T04:08:50.803Z,14.23
2018-12-25T04:11:24.405Z,13.93
2018-12-25T04:13:59.429Z,14.03
2018-12-25T04:16:33.097Z,14.90
2018-12-25T04:19:06.744Z,15.07
2018-12-25T04:21:40.117Z,14.77
2018-12-25T04:24:13.999Z,13.70
2018-12-25T04:26:47.708Z,13.87
2018-12-25T04:29:21.373Z,13.37
2018-12-25T04:31:55.318Z,13.33
2018-12-25T04:34:28.899Z,14.17
2018-12-25T04:37:02.792Z,12.60
2018-12-25T04:39:37.724Z,13.33
2018-12-25T04:42:11.479Z,14.20
2018-12-25T04:44:45.112Z,13.07
2018-12-25T04:47:18.507Z,13.33
2018-12-25T04:49:52.366Z,13.70
2018-12-25T04:52:26.024Z,12.70
2018-12-25T04:54:59.550Z,15.10
2018-12-25T04:57:33.570Z,13.67
2018-12-25T05:00:06.824Z,13.47
2018-12-25T05:02:41.541Z,14.03
2018-12-25T05:05:15.220Z,13.90
2018-12-25T05:07:48.922Z,13.43
2018-12-25T05:10:22.466Z,12.73
2018-12-25T05:12:55.855Z,13.73
2018-12-25T05:15:29.554Z,12.87
2018-12-25T05:18:02.861Z,12.30
2018-12-25T05:20:37.987Z,12.67
2018-12-25T05:23:11.639Z,12.63
2018-12-25T05:25:44.996Z,12.37
2018-12-25T05:28:20.137Z,12.80
2018-12-25T05:30:53.814Z,13.00
2018-12-25T05:33:27.628Z,11.83
2018-12-25T05:36:01.078Z,12.67
2018-12-25T05:38:34.642Z,11.73
2018-12-25T05:41:08.283Z,11.63
2018-12-25T05:43:41.929Z,11.27
2018-12-25T05:46:15.437Z,11.37
2018-12-25T05:48:49.036Z,10.97
2018-12-25T05:51:22.680Z,10.43
2018-12-25T05:53:56.274Z,11.73
2018-12-25T05:56:31.479Z,10.90
2018-12-25T05:59:05.550Z,9.83
2018-12-25T06:01:39.565Z,8.87
2018-12-25T06:04:12.805Z,10.47
2018-12-25T06:06:46.155Z,9.90
2018-12-25T06:09:19.514Z,10.73
2018-12-25T06:11:53.133Z,9.57
2018-12-25T06:14:26.784Z,10.73
2018-12-25T06:17:00.469Z,10.13
2018-12-25T06:19:34.197Z,10.10
2018-12-25T06:22:07.755Z,9.77
2018-12-25T06:24:41.332Z,9.50
2018-12-25T06:27:16.506Z,8.77
2018-12-25T06:29:49.811Z,9.57
2018-12-25T06:32:23.444Z,9.30
2018-12-25T06:34:57.103Z,9.40
2018-12-25T06:37:30.760Z,9.83
2018-12-25T06:40:03.756Z,11.43
2018-12-25T06:42:37.326Z,10.60
2018-12-25T06:45:10.775Z,10.77
2018-12-25T06:47:45.144Z,10.30
2018-12-25T06:50:18.797Z,10.47
2018-12-25T06:52:52.195Z,10.23
2018-12-25T06:55:25.846Z,10.77
2018-12-25T06:57:59.676Z,10.77
2018-12-25T07:00:33.979Z,10.33
2018-12-25T07:03:07.676Z,10.73
2018-12-25T07:05:41.072Z,10.23
2018-12-25T07:08:14.810Z,10.13
2018-12-25T07:10:48.511Z,10.90
2018-12-25T07:13:22.196Z,9.53
2018-12-25T07:15:56.140Z,10.63
2018-12-25T07:18:31.806Z,9.17
2018-12-25T07:21:12.170Z,9.80
2018-12-25T07:23:40.473Z,9.87
2018-12-25T07:26:13.698Z,8.80
2018-12-25T07:28:46.860Z,9.60
2018-12-25T07:31:20.576Z,9.77
2018-12-25T07:33:54.253Z,8.67
2018-12-25T07:36:27.979Z,9.13
2018-12-25T07:39:01.547Z,8.70
2018-12-25T07:41:39.147Z,9.33
2018-12-25T07:44:13.035Z,8.50
2018-12-25T07:46:46.676Z,9.33
2018-12-25T07:49:19.955Z,7.83
2018-12-25T07:51:53.887Z,8.63
2018-12-25T07:54:27.251Z,8.23
2018-12-25T07:57:00.837Z,8.57
2018-12-25T07:59:34.494Z,8.90
2018-12-25T08:02:08.927Z,8.27
2018-12-25T08:04:41.993Z,7.67
2018-12-25T08:07:17.269Z,8.47
2018-12-25T08:09:51.504Z,8.70
2018-12-25T08:12:25.239Z,8.03
2018-12-25T08:14:58.908Z,8.70
2018-12-25T08:17:34.150Z,9.10
2018-12-25T08:20:12.624Z,9.60
2018-12-25T08:22:48.229Z,9.77
2018-12-25T08:25:21.552Z,10.60
2018-12-25T08:27:55.284Z,10.07
2018-12-25T08:30:28.709Z,11.40
2018-12-25T08:33:02.389Z,10.47
2018-12-25T08:35:35.643Z,10.33
2018-12-25T08:38:09.525Z,10.47
2018-12-25T08:40:43.176Z,10.57
2018-12-25T08:43:16.725Z,9.87
2018-12-25T08:45:50.632Z,11.77
2018-12-25T08:48:24.247Z,11.77
2018-12-25T08:50:57.904Z,10.13
2018-12-25T08:53:34.516Z,11.03
2018-12-25T08:56:07.794Z,11.67
2018-12-25T08:58:41.879Z,12.80
2018-12-25T09:01:15.294Z,13.60
2018-12-25T09:03:49.401Z,12.30
2018-12-25T09:06:22.578Z,13.53
2018-12-25T09:08:55.951Z,13.43
2018-12-25T09:11:29.604Z,13.50
2018-12-25T09:14:02.958Z,14.33
2018-12-25T09:16:39.172Z,14.13
2018-12-25T09:19:13.321Z,13.47
2018-12-25T09:21:47.642Z,14.43
2018-12-25T09:24:24.411Z,14.83
2018-12-25T09:26:57.950Z,13.93
2018-12-25T09:29:31.667Z,14.30
2018-12-25T09:32:06.015Z,15.13
2018-12-25T09:34:39.676Z,14.63
2018-12-25T09:37:13.253Z,13.77
2018-12-25T09:39:47.078Z,14.17
2018-12-25T09:42:22.008Z,18.10
2018-12-25T09:44:55.705Z,17.03
2018-12-25T09:47:29.319Z,17.33
2018-12-25T09:50:03.136Z,16.50
2018-12-25T09:52:37.542Z,15.93
2018-12-25T09:55:10.938Z,17.20
2018-12-25T09:57:46.391Z,17.47
2018-12-25T10:00:20.045Z,16.83
2018-12-25T10:02:53.675Z,18.00
2018-12-25T10:05:27.879Z,16.47
2018-12-25T10:08:01.748Z,15.23
2018-12-25T10:10:35.316Z,20.03
2018-12-25T10:13:08.804Z,16.90
2018-12-25T10:15:42.612Z,16.40
2018-12-25T10:18:16.141Z,15.93
2018-12-25T10:20:51.078Z,16.17
2018-12-25T10:23:24.780Z,17.10
2018-12-25T10:25:58.614Z,15.57
2018-12-25T10:28:33.726Z,15.33
2018-12-25T10:31:07.516Z,16.07
2018-12-25T10:33:41.131Z,17.67
2018-12-25T10:36:14.810Z,17.40
2018-12-25T10:38:50.676Z,17.30
2018-12-25T10:41:24.902Z,17.20
2018-12-25T10:43:57.973Z,22.93
2018-12-25T10:46:31.259Z,18.20
2018-12-25T10:49:05.723Z,20.57
2018-12-25T10:51:39.296Z,20.03
2018-12-25T10:54:12.921Z,24.07
2018-12-25T10:59:21.101Z,18.67
2018-12-25T11:01:54.486Z,17.50
2018-12-25T11:04:28.240Z,16.57
2018-12-25T11:07:02.001Z,17.93
2018-12-25T11:09:35.802Z,17.40
2018-12-25T11:12:09.439Z,19.43
2018-12-25T11:14:42.844Z,20.10
2018-12-25T11:17:17.481Z,21.77
2018-12-25T11:19:51.182Z,19.10
2018-12-25T11:22:24.822Z,19.33
2018-12-25T11:24:58.708Z,25.07
2018-12-25T11:27:32.508Z,20.97
2018-12-25T11:30:06.246Z,21.37
2018-12-25T11:32:39.894Z,21.13
2018-12-25T11:35:13.642Z,20.97
2018-12-25T11:37:46.943Z,19.37
2018-12-25T11:40:20.220Z,20.07
2018-12-25T11:42:54.426Z,18.23
2018-12-25T11:45:28.117Z,17.23
2018-12-25T11:48:01.772Z,17.43
2018-12-25T11:50:35.363Z,16.07
2018-12-25T11:53:08.567Z,17.93
2018-12-25T11:55:42.360Z,16.00
2018-12-25T11:58:16.063Z,16.80
2018-12-25T12:00:49.895Z,14.70
2018-12-25T12:03:24.361Z,15.23
2018-12-25T12:05:57.965Z,15.43
2018-12-25T12:08:31.810Z,13.83
2018-12-25T12:11:05.391Z,13.30
2018-12-25T12:13:39.232Z,12.30
2018-12-25T12:16:12.997Z,13.77
2018-12-25T12:18:46.983Z,15.70
2018-12-25T12:21:20.404Z,13.27
2018-12-25T12:23:53.756Z,12.57
2018-12-25T12:26:27.066Z,15.27
2018-12-25T12:29:00.657Z,13.03
2018-12-25T12:31:34.044Z,13.37
2018-12-25T12:34:07.689Z,13.70
2018-12-25T12:36:41.389Z,14.87
2018-12-25T12:39:14.885Z,15.43
2018-12-25T12:41:48.432Z,13.67
2018-12-25T12:44:22.000Z,11.50
2018-12-25T12:46:55.211Z,11.23
2018-12-25T12:49:28.991Z,11.70
2018-12-25T12:52:02.465Z,11.13
2018-12-25T12:54:36.205Z,13.13
2018-12-25T12:57:10.390Z,12.53
2018-12-25T12:59:44.028Z,10.97
2018-12-25T13:02:20.437Z,10.87
2018-12-25T13:04:54.062Z,11.10
2018-12-25T13:07:27.816Z,9.07
2018-12-25T13:10:01.491Z,9.20
2018-12-25T13:12:35.210Z,8.27
2018-12-25T13:15:08.411Z,9.90
2018-12-25T13:17:41.592Z,8.23
2018-12-25T13:20:15.234Z,9.20
2018-12-25T13:22:53.963Z,10.20
2018-12-25T13:25:24.872Z,9.20
2018-12-25T13:27:58.530Z,9.60
2018-12-25T13:30:32.238Z,10.03
2018-12-25T13:33:05.909Z,11.70
2018-12-25T13:35:39.617Z,10.73
2018-12-25T13:38:13.271Z,11.57
2018-12-25T13:40:46.572Z,10.93
2018-12-25T13:43:19.873Z,10.63
2018-12-25T13:45:54.065Z,10.47
2018-12-25T13:48:27.723Z,10.53
2018-12-25T13:51:02.044Z,10.60
2018-12-25T13:53:35.756Z,8.80
2018-12-25T13:56:09.202Z,10.07
2018-12-25T13:58:43.029Z,9.27
2018-12-25T14:01:16.782Z,10.67
2018-12-25T14:03:50.524Z,9.93
2018-12-25T14:06:24.273Z,9.40
2018-12-25T14:08:58.378Z,9.67
2018-12-25T14:11:31.738Z,10.17
2018-12-25T14:14:04.713Z,8.47
2018-12-25T14:16:38.285Z,9.07
2018-12-25T14:19:12.059Z,8.87
2018-12-25T14:21:45.739Z,7.90
2018-12-25T14:24:33.625Z,8.63
2018-12-25T14:27:07.359Z,8.27
2018-12-25T14:29:41.029Z,9.20
2018-12-25T14:32:14.310Z,8.80
2018-12-25T14:34:49.098Z,8.53
2018-12-25T14:37:22.864Z,18.20
2018-12-25T14:39:56.680Z,12.27
2018-12-25T14:42:30.385Z,15.73
2018-12-25T14:45:03.747Z,16.57
2018-12-25T14:47:37.961Z,13.60
2018-12-25T14:50:11.455Z,15.00
2018-12-25T14:52:45.097Z,15.03
2018-12-25T14:55:18.447Z,20.43
2018-12-25T14:57:52.385Z,23.67
2018-12-25T15:00:26.013Z,26.17
2018-12-25T15:02:59.663Z,18.97
2018-12-25T15:05:33.554Z,16.77
2018-12-25T15:08:07.395Z,17.10
2018-12-25T15:10:42.103Z,16.63
2018-12-25T15:13:15.437Z,13.37
2018-12-25T15:15:48.861Z,14.70
2018-12-25T15:18:22.579Z,12.57
2018-12-25T15:20:56.920Z,12.43
2018-12-25T15:23:31.060Z,10.97
2018-12-25T15:26:04.239Z,11.40
2018-12-25T15:28:37.777Z,11.87
2018-12-25T15:31:11.504Z,10.77
2018-12-25T15:33:45.195Z,10.70
2018-12-25T15:36:18.802Z,11.47
2018-12-25T15:38:52.366Z,10.73
2018-12-25T15:41:25.811Z,10.47
2018-12-25T15:43:59.404Z,10.83
2018-12-25T15:46:33.529Z,10.93
2018-12-25T15:49:07.077Z,9.77
2018-12-25T15:51:40.760Z,9.87
2018-12-25T15:54:14.200Z,10.40
2018-12-25T15:56:50.186Z,11.37
2018-12-25T15:59:24.728Z,11.77
2018-12-25T16:01:58.080Z,10.90
2018-12-25T16:04:32.570Z,11.53
2018-12-25T16:07:05.656Z,11.30
2018-12-25T16:09:39.290Z,10.33
2018-12-25T16:12:12.881Z,10.63
2018-12-25T16:14:46.083Z,9.87
2018-12-25T16:17:19.626Z,9.67
2018-12-25T16:19:53.309Z,9.43
2018-12-25T16:22:26.898Z,9.87
2018-12-25T16:25:00.748Z,9.37
2018-12-25T16:27:34.420Z,10.23
2018-12-25T16:30:09.282Z,10.83
2018-12-25T16:32:42.782Z,11.50
2018-12-25T16:35:16.497Z,13.20
2018-12-25T16:37:49.790Z,10.70
2018-12-25T16:44:19.669Z,13.37
2018-12-25T16:46:52.799Z,12.33
2018-12-25T16:49:26.061Z,12.23
2018-12-25T16:52:02.269Z,34.57
2018-12-25T16:54:35.570Z,21.03
2018-12-25T16:57:11.156Z,21.03
2018-12-25T17:03:17.656Z,43.37
2018-12-25T17:06:07.420Z,31.10
2018-12-25T17:18:57.779Z,22.30
2018-12-25T17:31:40.729Z,16.60
2018-12-25T17:34:14.167Z,17.07
2018-12-25T17:36:49.513Z,15.20
2018-12-25T17:39:22.771Z,15.80
2018-12-25T17:41:56.744Z,16.43
2018-12-25T17:44:32.876Z,16.47
2018-12-25T17:47:20.406Z,16.67
2018-12-25T17:49:56.510Z,15.93
2018-12-25T17:52:29.795Z,13.53
2018-12-25T17:55:03.440Z,14.47
2018-12-25T18:11:29.411Z,8.80
2018-12-25T18:14:02.709Z,9.43
2018-12-25T18:16:35.707Z,8.70
2018-12-25T18:19:08.853Z,9.13
2018-12-25T18:21:41.934Z,9.03
2018-12-25T18:24:19.133Z,12.03
2018-12-25T18:26:49.416Z,11.70
2018-12-25T18:29:22.587Z,11.90
2018-12-25T18:31:55.816Z,18.00
2018-12-25T18:34:28.406Z,14.73
2018-12-25T18:37:01.611Z,14.93
2018-12-25T18:39:35.107Z,14.67
2018-12-25T18:42:07.940Z,14.53
2018-12-25T18:44:41.280Z,13.33
2018-12-25T18:47:16.771Z,12.70
2018-12-25T18:49:49.611Z,12.67
2018-12-25T18:52:22.510Z,11.63
2018-12-25T18:54:55.501Z,10.70
2018-12-25T18:57:28.733Z,10.57
2018-12-25T19:00:01.866Z,10.80
2018-12-25T19:02:36.411Z,10.53
2018-12-25T19:05:09.319Z,10.20
2018-12-25T19:07:44.076Z,9.87
2018-12-25T19:10:17.234Z,11.80
2018-12-25T19:12:50.926Z,10.23
2018-12-25T19:28:22.796Z,10.90
2018-12-25T19:30:57.414Z,11.73
2018-12-25T19:33:30.395Z,10.63
2018-12-25T19:36:03.311Z,13.80
2018-12-25T19:38:36.659Z,12.77
2018-12-25T19:41:10.260Z,12.77
2018-12-25T19:43:43.073Z,12.07
2018-12-25T19:46:15.944Z,12.97
2018-12-25T19:48:49.121Z,12.60
2018-12-25T19:51:23.617Z,12.53
2018-12-25T20:24:02.238Z,9.87
2018-12-25T20:27:30.799Z,10.23
2018-12-25T20:30:43.969Z,10.30
2018-12-25T20:33:53.343Z,9.97
2018-12-25T20:37:04.436Z,10.13
2018-12-25T20:46:33.961Z,8.63
2018-12-25T20:56:28.885Z,8.33
2018-12-25T20:59:47.512Z,8.83
2018-12-25T21:03:02.029Z,8.70
2018-12-25T21:06:04.550Z,8.17
2018-12-25T21:09:16.295Z,8.07
2018-12-25T21:12:28.142Z,7.63
2018-12-25T21:15:41.364Z,8.00
2018-12-25T21:18:49.244Z,8.47
2018-12-25T21:34:48.608Z,8.00
2018-12-25T21:37:21.782Z,8.13
2018-12-25T21:39:55.267Z,8.17
2018-12-25T21:42:28.194Z,7.97
2018-12-25T21:45:01.343Z,7.97
2018-12-25T21:47:34.454Z,6.80
2018-12-25T21:50:07.296Z,7.33
2018-12-25T21:52:41.189Z,7.17
2018-12-25T21:55:18.470Z,6.53
2018-12-25T21:57:49.144Z,6.77
2018-12-25T22:00:22.753Z,6.67
2018-12-25T22:02:56.121Z,7.93
2018-12-25T22:05:29.336Z,6.60
2018-12-25T22:17:52.486Z,6.60
2018-12-25T22:20:29.031Z,6.60
2018-12-25T22:23:02.146Z,6.73
2018-12-25T22:25:35.471Z,6.60
2018-12-25T22:28:08.790Z,7.37
2018-12-25T22:30:41.323Z,6.93
2018-12-25T22:33:14.499Z,7.57
2018-12-25T22:35:47.536Z,6.80
2018-12-25T22:38:20.893Z,6.30
2018-12-25T22:40:53.670Z,6.70
2018-12-25T22:43:26.925Z,6.20
2018-12-25T22:46:00.035Z,6.10
2018-12-25T22:48:33.485Z,6.43
2018-12-25T22:51:06.477Z,6.97
2018-12-25T22:53:39.311Z,5.80
2018-12-25T22:56:12.305Z,6.03
2018-12-25T22:58:45.218Z,6.70
2018-12-25T23:01:18.303Z,6.97
2018-12-25T23:03:51.669Z,6.40
2018-12-25T23:06:24.865Z,6.70
2018-12-25T23:08:58.138Z,6.57
2018-12-25T23:11:31.684Z,6.83
2018-12-25T23:14:04.253Z,6.83
2018-12-25T23:16:37.371Z,7.40
2018-12-25T23:19:10.659Z,7.60
2018-12-25T23:21:44.322Z,8.43
2018-12-25T23:24:17.751Z,7.37
2018-12-25T23:26:50.836Z,8.43
2018-12-25T23:29:25.320Z,8.77
2018-12-25T23:31:58.118Z,8.00
2018-12-25T23:34:30.879Z,8.53
2018-12-25T23:37:04.326Z,8.07
2018-12-25T23:39:37.625Z,8.43
2018-12-25T23:42:10.722Z,8.80
2018-12-25T23:44:44.714Z,9.13
2018-12-25T23:47:17.802Z,8.57
2018-12-25T23:49:50.903Z,8.87
2018-12-25T23:52:23.859Z,8.77
2018-12-25T23:54:58.937Z,8.37
2018-12-25T23:57:32.282Z,8.23
